createdAt,value
2023-05-05T00:32:27.717Z,14.55
2023-05-05T01:02:45.249Z,14.45
2023-05-05T01:33:02.141Z,14.15
2023-05-05T02:03:21.184Z,13.65
2023-05-05T02:33:38.145Z,13.65
2023-05-05T03:03:57.726Z,13.55
2023-05-05T03:34:18.784Z,13.2
2023-05-05T04:04:35.645Z,12.7
2023-05-05T04:34:55.782Z,13.1
2023-05-05T05:05:16.370Z,13.95
2023-05-05T05:35:37.844Z,16
2023-05-05T06:05:58.029Z,17.35
2023-05-05T06:36:27.481Z,19.4
2023-05-05T07:06:52.349Z,21.7
2023-05-05T07:37:08.809Z,22.85
2023-05-05T08:07:36.507Z,25.5
2023-05-05T08:38:03.028Z,29
2023-05-05T09:08:21.935Z,27.55
2023-05-05T09:38:40.316Z,29.65
2023-05-05T10:09:01.944Z,30.2
2023-05-05T10:39:24.721Z,31.2
2023-05-05T11:09:45.362Z,31.35
2023-05-05T11:40:07.562Z,32.9
2023-05-05T12:10:27.315Z,31.95
2023-05-05T12:40:31.189Z,30.75
2023-05-05T13:10:39.392Z,29.7
2023-05-05T13:40:54.709Z,28.8
2023-05-05T14:10:58.842Z,26.7
2023-05-05T14:41:08.010Z,25
2023-05-05T15:11:16.126Z,20.3
2023-05-05T15:41:33.807Z,20.55
2023-05-05T16:11:52.980Z,20.65
2023-05-05T16:42:10.044Z,20.1
2023-05-05T17:12:26.891Z,20.05
2023-05-05T17:42:44.029Z,19.8
2023-05-05T18:13:03.492Z,19.55
2023-05-05T18:43:20.500Z,18.85
2023-05-05T19:43:55.480Z,17.7
2023-05-05T20:14:11.801Z,17
2023-05-05T20:44:28.545Z,16.7
2023-05-05T21:14:51.771Z,16.5
2023-05-05T21:45:10.202Z,16.3
2023-05-05T22:15:32.627Z,15.7
2023-05-05T22:45:46.868Z,15.15
2023-05-05T23:16:08.047Z,14.95
2023-05-05T23:46:26.084Z,14.65
